• Join FlightAware (Why Join?)
  • Login
  • US Flag 
01:23AM EDT


 

Airport Tracker/Info


-or-


 

Live Flight TrackerFlight Track Log ✈ SKW7363 ✈ 23-Jan-2014 ✈ KSLC - KTWF

Flight Track Log - Related Links

Times and Time Zones

All times are in EST time to prevent confusion due to time zone crossing. See the SKW7363 flight status page for this flight to view local times or setup timezone preferences in your user account.

Time Position Orientation Groundspeed Altitude Reporting Facility
EST Latitude Longitude Course Direction KTS MPH feet Rate Location/Type
11:13PM 40.7864 -111.9975 201° Southwest 148 170 4,700  Level Salt Lake Center
11:14PM 40.7628 -112.0097 201° Southwest 149 171 6,300 1,980 Climbing Salt Lake Center
11:15PM 40.7728 -112.0703 282° West 172 198 8,100 1,620 Climbing Salt Lake Center
11:16PM 40.7900 -112.1392 288° West 197 227 9,700 1,560 Climbing Salt Lake Center
11:17PM 40.8331 -112.1931 317° Northwest 212 244 11,300 1,560 Climbing Salt Lake Center
11:18PM 40.8767 -112.2497 316° Northwest 218 251 13,000 1,260 Climbing Salt Lake Center
11:19PM 40.9308 -112.2969 327° Northwest 232 267 14,000 960 Climbing Salt Lake Center
11:20PM 40.9892 -112.3492 326° Northwest 251 289 15,000 1,320 Climbing Salt Lake Center
11:21PM 41.0414 -112.3958 326° Northwest 223 257 16,800 1,440 Climbing Salt Lake Center
11:22PM 41.0897 -112.4428 324° Northwest 215 247 18,000 720 Climbing Salt Lake Center
11:23PM 41.1431 -112.4925 325° Northwest 235 270 18,300 780 Climbing Salt Lake Center
11:24PM 41.2114 -112.5539 326° Northwest 246 283 19,600 780 Climbing Salt Lake Center
11:25PM 41.2681 -112.6075 325° Northwest 251 289 20,000 180 Climbing Salt Lake Center
11:26PM 41.3225 -112.6817 314° West 278 320 20,000  Level Salt Lake Center
11:27PM 41.3750 -112.7606 312° West 285 328 20,000  Level Salt Lake Center
11:28PM 41.4414 -112.8181 327° Northwest 282 325 20,000  Level Salt Lake Center
11:29PM 41.5069 -112.8728 328° Northwest 279 321 20,000  Level Salt Lake Center
11:30PM 41.5719 -112.9281 328° Northwest 278 320 20,000  Level Salt Lake Center
11:31PM 41.6383 -112.9844 328° Northwest 280 322 20,000  Level Salt Lake Center
11:32PM 41.7039 -113.0417 327° Northwest 281 323 20,000  Level Salt Lake Center
11:33PM 41.7694 -113.0975 328° Northwest 278 320 20,000  Level Salt Lake Center
11:34PM 41.8489 -113.1669 327° Northwest 283 326 20,000  Level Salt Lake Center
11:35PM 41.9181 -113.2258 328° Northwest 291 335 20,000  Level Salt Lake Center
11:36PM 41.9861 -113.2883 326° Northwest 295 339 20,000  Level Salt Lake Center
11:37PM 42.0564 -113.3489 327° Northwest 299 344 20,000  Level Salt Lake Center
11:38PM 42.1264 -113.4086 328° Northwest 298 343 20,000  Level Salt Lake Center
11:39PM 42.1947 -113.4686 327° Northwest 295 339 20,000 -720 Level Salt Lake Center
11:40PM 42.2653 -113.5308 327° Northwest 301 346 18,600 -1,680 Descending Salt Lake Center
11:41PM 42.3319 -113.5892 327° Northwest 291 335 16,600 -2,220 Descending Salt Lake Center
11:42PM 42.3908 -113.6439 326° Northwest 268 308 14,100 -2,280 Descending Salt Lake Center
11:43PM 42.4503 -113.6950 328° Northwest 256 295 12,000 -1,080 Descending Salt Lake Center
11:44PM 42.4653 -113.8050 281° West 252 290 11,900 180 Descending Salt Lake Center
11:45PM 42.4694 -113.9044 273° West 264 304 12,400 780 Climbing Salt Lake Center
11:46PM 42.4428 -113.9847 246° West 263 303 13,500 960 Climbing Salt Lake Center
11:47PM 42.3922 -113.9422 148° Southeast 246 283 14,400 1,020 Climbing Salt Lake Center
11:48PM 42.3550 -113.8731 126° Southeast 233 268 15,700 1,260 Climbing Salt Lake Center
11:49PM 42.3211 -113.8025 123° Southeast 225 259 17,000 1,080 Climbing Salt Lake Center
11:50PM 42.2867 -113.7342 124° Southeast 222 255 17,900 480 Climbing Salt Lake Center
11:51PM 42.2508 -113.6592 123° Southeast 231 266 18,000  Climbing Salt Lake Center
11:52PM 42.2078 -113.5833 127° Southeast 248 285 18,000  Level Salt Lake Center
11:53PM 42.1578 -113.5044 131° Southeast 268 308 18,000 -60 Level Salt Lake Center
11:54PM 42.0964 -113.4108 131° Southeast 277 319 17,900  Descending Salt Lake Center
11:55PM 42.0433 -113.3300 131° Southeast 285 328 18,000 -240 Climbing Salt Lake Center
11:57PM 41.9956 -113.2422 126° Southeast 289 333 17,500 -600 Descending Salt Lake Center
11:58PM 41.9475 -113.1522 126° Southeast 294 338 16,900 -600 Descending Salt Lake Center
11:59PM 41.8983 -113.0619 126° Southeast 301 346 16,300 -660 Descending Salt Lake Center
12:00AM 41.8489 -112.9739 127° Southeast 297 342 15,600 -660 Descending Salt Lake Center
12:01AM 41.7997 -112.8869 127° Southeast 296 341 15,000 -600 Descending Salt Lake Center
12:02AM 41.7503 -112.7997 127° Southeast 295 339 14,400 -540 Descending Salt Lake Center
12:03AM 41.7008 -112.7122 127° Southeast 295 339 14,000 -240 Descending Salt Lake Center
12:03AM 41.6594 -112.6350 126° Southeast 284 327 14,000  Level Salt Lake Center
12:04AM 41.6497 -112.6319 167° South 288 331 14,000  Level Salt Lake Center
12:04AM 41.6181 -112.5858 133° Southeast 281 323 14,000 -120 Level Salt Lake Center
12:05AM 41.5897 -112.5647 151° Southeast 284 327 13,900 -420 Descending Salt Lake Center
12:05AM 41.5597 -112.5164 130° Southeast 288 331 13,600 -720 Descending Salt Lake Center
12:06AM 41.5194 -112.4756 143° Southeast 290 334 13,200 -600 Descending Salt Lake Center
12:06AM 41.4981 -112.4400 129° Southeast 299 344 13,000 -540 Descending Salt Lake Center
12:07AM 41.4572 -112.4000 144° Southeast 301 346 12,700 -600 Descending Salt Lake Center
12:07AM 41.4322 -112.3650 134° Southeast 294 338 12,400 -720 Descending Salt Lake Center
12:08AM 41.4017 -112.3322 141° Southeast 273 314 12,000 -1,140 Descending Salt Lake Center
12:08AM 41.3808 -112.2994 130° Southeast 249 287 11,300 -1,500 Descending Salt Lake Center
12:09AM 41.3506 -112.2681 142° Southeast 256 295 10,500 -1,200 Descending Salt Lake Center
12:09AM 41.3281 -112.2375 134° Southeast 256 295 10,100 -540 Descending Salt Lake Center
12:10AM 41.2983 -112.2047 140° Southeast 254 292 10,000 -120 Descending Salt Lake Center
12:10AM 41.2772 -112.1747 133° Southeast 247 284 10,000  Level Salt Lake Center
12:11AM 41.2497 -112.1453 141° Southeast 241 277 10,000 -180 Level Salt Lake Center
12:11AM 41.2214 -112.1083 136° Southeast 241 277 9,800 -540 Descending Salt Lake Center
12:12AM 41.1989 -112.0842 141° Southeast 246 283 9,500 -720 Descending Salt Lake Center
12:12AM 41.1742 -112.0531 137° Southeast 257 296 9,200 -540 Descending Salt Lake Center
12:13AM 41.1472 -112.0228 140° Southeast 250 288 9,000 -180 Descending Salt Lake Center
12:13AM 41.1081 -112.0131 169° South 236 272 9,000  Level Salt Lake Center
12:14AM 41.0842 -112.0114 177° South 235 270 9,000  Level Salt Lake Center
12:14AM 41.0444 -112.0061 174° South 234 269 9,000 -240 Level Salt Lake Center
12:15AM 41.0069 -112.0003 173° South 239 275 8,800 -900 Descending Salt Lake Center
12:15AM 40.9756 -111.9956 174° South 252 290 8,100 -1,560 Descending Salt Lake Center
12:16AM 40.9389 -111.9925 176° South 249 287 7,200 -1,440 Descending Salt Lake Center
12:16AM 40.9033 -111.9889 176° South 217 250 6,500 -1,440 Descending Salt Lake Center
12:17AM 40.8831 -111.9858 174° South 201 231 5,800 -1,140 Descending Salt Lake Center
12:17AM 40.8547 -111.9828 175° South 158 182 5,400 -840 Descending Salt Lake Center
12:18AM 40.8389 -111.9808 175° South 162 186 5,000 -900 Descending Salt Lake Center
12:18AM 40.8197 -111.9806 179° South 129 148 4,600 -840 Descending Salt Lake Center
12:19AM 40.8036 -111.9756 167° South 130 150 4,200 -720 Descending Salt Lake Center
12:21AM 40.7833 -111.9667 159° South  Level FlightAware Approximate